Latest Weather Observations for Halls Creek

IDW60801

Issued at 11:05 pm WST Wednesday 17 September 2014 (issued every 30 minutes, with the page automatically refreshed every 10 minutes)

About weather observations | Map of weather stations | Latest weather observations for WA | Other Formats
Station Details ID: 002012 Name: HALLS CREEK AIRPORT Lat: -18.23 Lon: 127.66 Height: 422.0 m
Data from the previous 72 hours. | See also: Recent months at Halls Creek
Date/Time
WST
Temp
°C
App
Temp
°C
Dew
Point
Rel
Hum
%
Delta-T
°C
Wind Press
QNH
hPa
Press
MSL
hPa
Rain
since 9 am
mm
Dir
 
Spd
km/h
Gust
km/h
Spd
kts
Gust
kts
17/11:00pm 23.4 21.0 2.4 25 10.2 NNE 4 7 2 4 1016.3 - 0.0
17/10:30pm 24.9 22.4 1.5 21 11.3 S 4 4 2 2 1016.2 - 0.0
17/10:00pm 24.3 22.4 3.1 25 10.5 E 2 7 1 4 1016.5 - 0.0
17/09:30pm 24.1 22.0 2.0 23 10.7 NE 2 7 1 4 1016.5 - 0.0
17/09:00pm 24.6 22.8 3.3 25 10.6 NNE 2 4 1 2 1016.4 1013.9 0.0
17/08:30pm 27.0 24.1 1.5 19 12.5 NW 6 6 3 3 1016.2 - 0.0
17/08:00pm 26.0 23.7 2.6 22 11.6 W 4 4 2 2 1016.1 - 0.0
17/07:30pm 27.3 25.6 4.2 22 11.9 NNW 2 4 1 2 1015.8 - 0.0
17/07:00pm 28.7 26.3 2.2 18 13.3 NW 4 4 2 2 1015.5 - 0.0
17/06:30pm 29.5 26.8 0.5 15 14.2 NNW 4 4 2 2 1015.2 - 0.0
17/06:00pm 30.3 27.8 1.6 16 14.4 NE 4 4 2 2 1014.8 1012.3 0.0
17/05:30pm 31.0 29.7 5.9 20 13.6 ENE 2 4 1 2 1014.3 - 0.0
17/05:00pm 32.4 29.2 -0.2 12 16.1 ENE 6 11 3 6 1014.0 - 0.0
17/04:30pm 33.7 30.3 -1.7 10 17.2 NE 6 11 3 6 1013.7 - 0.0
17/04:00pm 34.0 30.8 -0.4 11 17.1 E 6 11 3 6 1013.5 - 0.0
17/03:30pm 34.6 30.6 -2.5 9 17.9 ENE 9 22 5 12 1013.5 - 0.0
17/03:00pm 34.8 31.5 -0.9 10 17.7 ESE 6 11 3 6 1013.4 1010.8 0.0
17/02:30pm 34.5 30.7 -3.9 8 18.1 NNE 7 22 4 12 1013.5 - 0.0
17/02:00pm 33.7 30.2 -1.2 10 17.1 NE 7 19 4 10 1013.7 - 0.0
17/01:30pm 34.1 30.5 -2.0 10 17.5 NE 7 20 4 11 1014.0 - 0.0
17/01:00pm 34.8 30.9 -1.4 10 17.8 NNE 9 24 5 13 1014.2 - 0.0
17/12:30pm 34.5 30.4 -2.9 9 17.9 NE 9 28 5 15 1014.7 - 0.0
17/12:00pm 33.9 30.0 -1.2 10 17.2 NE 9 32 5 17 1015.3 1012.7 0.0
17/11:30am 34.0 30.6 2.1 13 16.5 NNE 9 24 5 13 1015.6 - 0.0
17/11:00am 33.3 30.1 2.8 14 15.9 NE 9 22 5 12 1016.0 - 0.0
17/10:30am 32.4 29.8 6.0 19 14.4 ENE 9 24 5 13 1016.5 - 0.0
17/10:00am 31.9 28.5 4.0 17 14.7 NE 11 30 6 16 1016.9 - 0.0
17/09:30am 31.5 29.5 7.1 21 13.5 ENE 7 15 4 8 1017.2 - 0.0
17/09:00am 30.6 29.1 8.3 25 12.5 SE 6 13 3 7 1017.4 1014.9 0.0
17/08:30am 28.8 27.9 9.1 29 11.1 NNW 4 7 2 4 1017.6 - 0.0
17/08:00am 27.4 26.7 8.7 30 10.4 NNE 2 4 1 2 1017.4 - 0.0
17/07:30am 25.5 23.3 3.3 23 11.1 N 4 7 2 4 1017.0 - 0.0
17/07:00am 23.1 20.9 1.1 23 10.4 N 2 4 1 2 1016.7 - 0.0
17/06:30am 21.1 19.4 1.8 28 9.1 CALM 0 2 0 1 1016.4 - 0.0
17/06:00am 19.3 17.4 2.9 33 7.8 NNE 2 2 1 1 1016.0 1013.5 0.0
17/05:30am 18.2 16.0 1.0 31 7.8 NE 2 2 1 1 1015.7 - 0.0
17/05:00am 17.8 16.1 1.7 34 7.4 CALM 0 2 0 1 1015.4 - 0.0
17/04:30am 19.5 16.6 -1.2 24 9.1 NNW 4 6 2 3 1015.1 - 0.0
17/04:00am 18.7 16.2 -0.9 26 8.6 ENE 2 2 1 1 1014.7 - 0.0
17/03:30am 19.1 16.7 -0.1 27 8.6 NNE 2 4 1 2 1014.4 - 0.0
17/03:00am 19.5 17.0 -0.8 25 9.0 WSW 2 4 1 2 1014.1 1011.6 0.0
17/02:30am 21.1 18.2 -1.0 22 9.9 N 4 6 2 3 1013.9 - 0.0
17/02:00am 21.4 18.4 -1.6 21 10.2 N 4 4 2 2 1013.7 - 0.0
17/01:30am 20.5 17.7 -3.6 19 10.2 NE 2 7 1 4 1013.8 - 0.0
17/01:00am 20.7 18.5 0.8 26 9.2 ESE 2 4 1 2 1013.9 - 0.0
17/12:30am 21.3 18.7 -1.4 22 10.1 E 2 4 1 2 1013.9 - 0.0
17/12:00am 22.5 19.9 -1.7 20 10.8 ENE 2 4 1 2 1014.1 1011.6 0.0
 
Date/Time
WST
Temp
°C
App
Temp
°C
Dew
Point
Rel
Hum
%
Delta-T
°C
Wind Press
QNH
hPa
Press
MSL
hPa
Rain
since 9 am
mm
Dir
 
Spd
km/h
Gust
km/h
Spd
kts
Gust
kts
16/11:30pm 21.3 19.1 1.2 26 9.4 E 2 4 1 2 1014.4 - 0.0
16/11:00pm 22.5 20.5 2.1 26 9.8 SSE 2 2 1 1 1014.4 - 0.0
16/10:30pm 24.4 21.2 -3.8 15 12.3 N 4 6 2 3 1014.4 - 0.0
16/10:00pm 22.4 19.4 -1.9 19 10.8 S 4 4 2 2 1014.5 - 0.0
16/09:30pm 21.9 19.0 -4.5 16 11.1 S 2 19 1 10 1014.5 - 0.0
16/09:00pm 23.9 22.0 0.6 21 11.0 CALM 0 2 0 1 1014.3 1011.8 0.0
16/08:30pm 25.7 23.5 -1.9 16 12.6 CALM 0 2 0 1 1014.2 - 0.0
16/08:00pm 26.6 24.0 -1.4 16 13.0 WNW 2 4 1 2 1014.1 - 0.0
16/07:30pm 27.5 24.4 -2.3 14 13.7 NNW 4 4 2 2 1013.9 - 0.0
16/07:00pm 28.0 24.7 -4.4 11 14.4 NNW 4 4 2 2 1013.6 - 0.0
16/06:30pm 28.5 25.6 -3.9 12 14.6 NNW 2 4 1 2 1013.3 - 0.0
16/06:00pm 28.6 26.1 -0.8 14 14.0 N 2 4 1 2 1013.0 1010.4 0.0
16/05:30pm 30.6 28.1 -1.0 13 15.2 NE 2 6 1 3 1012.6 - 0.0
16/05:00pm 32.2 28.4 -6.0 8 17.1 N 6 9 3 5 1012.2 - 0.0
16/04:30pm 33.2 29.0 -8.1 6 18.0 ENE 7 13 4 7 1012.0 - 0.0
16/04:00pm 33.5 29.2 -9.0 6 18.3 NE 7 19 4 10 1011.9 - 0.0
16/03:30pm 33.7 30.0 -8.2 6 18.3 NW 4 13 2 7 1011.7 - 0.0
16/03:00pm 34.1 29.6 -11.1 5 18.9 N 7 20 4 11 1011.7 1009.2 0.0
16/02:30pm 34.0 29.2 -9.9 5 18.7 NNE 9 19 5 10 1012.0 - 0.0
16/02:00pm 34.0 29.9 -8.4 6 18.5 E 6 19 3 10 1012.2 - 0.0
16/01:30pm 34.2 29.7 -11.5 5 19.0 NNE 7 17 4 9 1012.4 - 0.0
16/01:00pm 33.8 29.3 -11.9 5 18.8 ENE 7 26 4 14 1013.1 - 0.0
16/12:30pm 33.3 28.0 -12.8 4 18.6 NE 11 24 6 13 1013.5 - 0.0
16/12:00pm 33.2 27.6 -10.6 5 18.3 NE 13 28 7 15 1014.0 1011.5 0.0
16/11:30am 33.5 27.9 -10.8 5 18.5 E 13 28 7 15 1014.3 - 0.0
16/11:00am 33.3 28.0 -11.9 5 18.5 ENE 11 28 6 15 1014.7 - 0.0
16/10:30am 32.8 27.1 -12.8 4 18.3 ENE 13 32 7 17 1015.1 - 0.0
16/10:00am 32.7 27.0 -12.4 5 18.2 ENE 13 26 7 14 1015.4 - 0.0
16/09:30am 32.8 27.0 -14.9 4 18.5 E 13 26 7 14 1015.7 - 0.0
16/09:00am 31.6 26.6 -13.6 5 17.7 E 9 20 5 11 1015.9 1013.4 0.0
16/08:30am 30.4 26.9 -6.4 9 16.1 ENE 4 7 2 4 1016.1 - 0.0
16/08:00am 28.3 24.9 -5.2 11 14.7 ENE 4 6 2 3 1016.2 - 0.0
16/07:30am 25.5 22.1 -5.4 12 13.2 E 4 4 2 2 1016.0 - 0.0
16/07:00am 22.8 20.5 -2.7 18 11.2 CALM 0 4 0 2 1015.6 - 0.0
16/06:30am 20.4 17.7 -2.6 21 9.9 NNE 2 2 1 1 1015.4 - 0.0
16/06:00am 17.6 15.0 -1.9 26 8.3 SSE 2 4 1 2 1014.9 1012.4 0.0
16/05:30am 17.2 14.9 -2.3 26 8.2 CALM 0 2 0 1 1014.6 - 0.0
16/05:00am 17.7 14.7 -5.1 20 9.1 NW 2 2 1 1 1014.4 - 0.0
16/04:30am 17.5 14.6 -4.6 22 8.9 N 2 4 1 2 1014.2 - 0.0
16/04:00am 18.3 15.7 -5.1 20 9.4 CALM 0 0 0 0 1013.9 - 0.0
16/03:30am 18.8 15.1 -8.0 15 10.2 NNW 4 4 2 2 1013.6 - 0.0
16/03:00am 18.8 15.2 -7.5 16 10.1 N 4 4 2 2 1013.4 1010.8 0.0
16/02:30am 19.2 16.2 -5.4 18 9.9 NE 2 4 1 2 1013.5 - 0.0
16/02:00am 18.7 15.4 -4.2 21 9.4 E 4 6 2 3 1013.4 - 0.0
16/01:30am 18.8 15.7 -6.4 17 9.9 E 2 4 1 2 1013.6 - 0.0
16/01:00am 18.9 15.9 -5.6 18 9.8 SSE 2 6 1 3 1013.7 - 0.0
16/12:30am 18.1 14.5 -7.2 17 9.7 N 4 11 2 6 1013.9 - 0.0
16/12:00am 20.7 17.6 -6.1 16 10.8 N 2 4 1 2 1013.9 1011.4 0.0
 
Date/Time
WST
Temp
°C
App
Temp
°C
Dew
Point
Rel
Hum
%
Delta-T
°C
Wind Press
QNH
hPa
Press
MSL
hPa
Rain
since 9 am
mm
Dir
 
Spd
km/h
Gust
km/h
Spd
kts
Gust
kts
15/11:30pm 21.8 18.5 -8.6 12 11.8 N 2 4 1 2 1014.3 - 0.0
15/11:00pm 21.6 18.4 -7.4 13 11.5 N 2 4 1 2 1014.5 - 0.0
15/10:30pm 21.2 18.1 -6.3 15 11.1 N 2 4 1 2 1014.6 - 0.0
15/10:00pm 22.7 19.2 -5.9 14 11.8 S 4 6 2 3 1014.6 - 0.0
15/09:30pm 24.0 20.2 -10.4 9 13.2 SW 4 6 2 3 1014.5 - 0.0
15/09:00pm 24.3 21.1 -7.4 11 12.9 S 2 6 1 3 1014.6 1012.1 0.0
15/08:30pm 24.7 21.2 -6.1 12 12.9 S 4 4 2 2 1014.6 - 0.0
15/08:00pm 24.8 22.2 -5.3 13 12.8 CALM 0 2 0 1 1014.6 - 0.0
15/07:30pm 25.7 22.8 -3.8 14 13.0 S 2 2 1 1 1014.3 - 0.0
15/07:00pm 25.3 22.4 -4.4 13 12.9 NNW 2 4 1 2 1014.1 - 0.0
15/06:30pm 26.9 23.9 -5.5 11 14.0 ESE 2 4 1 2 1013.8 - 0.0
15/06:00pm 27.3 24.9 -0.6 16 13.2 ESE 2 4 1 2 1013.5 1011.0 0.0
15/05:30pm 29.3 25.1 -10.6 7 16.1 ESE 6 13 3 7 1013.1 - 0.0
15/05:00pm 30.9 26.0 -12.4 5 17.2 ESE 9 19 5 10 1012.8 - 0.0
15/04:30pm 32.3 26.4 -16.8 3 18.4 SE 13 24 7 13 1012.6 - 0.0
15/04:00pm 33.2 27.4 -25.6 1 19.4 ESE 11 22 6 12 1012.6 - 0.0
15/03:30pm 33.1 27.8 -18.9 3 19.0 ENE 9 19 5 10 1012.7 - 0.0
15/03:00pm 33.0 28.3 -14.5 4 18.6 E 7 32 4 17 1012.8 1010.2 0.0
15/02:30pm 32.9 27.7 -17.7 3 18.8 E 9 19 5 10 1012.9 - 0.0
15/02:00pm 33.4 27.4 -17.9 3 19.1 E 13 22 7 12 1013.2 - 0.0
15/01:30pm 33.2 28.5 -15.5 4 18.8 ENE 7 22 4 12 1013.4 - 0.0
15/01:00pm 33.4 27.9 -15.4 4 18.9 ESE 11 33 6 18 1013.8 - 0.0
15/12:30pm 33.7 27.3 -18.5 3 19.3 ESE 15 28 8 15 1014.1 - 0.0
15/12:00pm 33.3 27.1 -15.0 4 18.8 ESE 15 32 8 17 1014.6 1012.1 0.0
15/11:30am 32.6 26.9 -12.9 5 18.2 SE 13 22 7 12 1015.2 - 0.0
15/11:00am 31.9 26.7 -11.1 5 17.6 SE 11 33 6 18 1015.9 - 0.0
15/10:30am 32.4 27.2 -11.3 5 17.9 E 11 26 6 14 1016.3 - 0.0
15/10:00am 31.8 26.1 -12.6 5 17.7 SE 13 33 7 18 1016.8 - 0.0
15/09:30am 31.2 26.0 -10.3 6 17.1 E 11 22 6 12 1017.0 - 0.0
15/09:00am 30.5 25.9 -8.1 7 16.4 E 9 19 5 10 1017.3 1014.8 0.0
15/08:30am 28.9 24.4 -6.8 9 15.3 E 9 19 5 10 1017.3 - 0.0
15/08:00am 27.1 23.3 -5.1 11 14.0 ENE 6 11 3 6 1017.3 - 0.0
15/07:30am 25.1 22.0 -2.6 16 12.4 E 4 6 2 3 1017.1 - 0.0
15/07:00am 23.4 20.6 -3.1 17 11.6 ENE 2 4 1 2 1016.8 - 0.0
15/06:30am 20.9 18.9 -0.3 24 9.6 CALM 0 4 0 2 1016.5 - 0.0
15/06:00am 17.9 15.4 -0.9 28 8.2 WSW 2 2 1 1 1016.3 1013.8 0.0
15/05:30am 18.2 15.5 -2.3 24 8.7 NE 2 4 1 2 1016.0 - 0.0
15/05:00am 18.9 16.1 -2.9 22 9.2 E 2 4 1 2 1015.8 - 0.0
15/04:30am 18.1 15.3 -2.9 24 8.8 S 2 4 1 2 1015.7 - 0.0
15/04:00am 17.2 14.2 -1.9 27 8.1 S 4 7 2 4 1015.4 - 0.0
15/03:30am 19.6 16.6 -4.9 18 10.0 NE 2 4 1 2 1014.7 - 0.0
15/03:00am 18.7 15.9 -2.9 23 9.1 E 2 4 1 2 1014.7 1012.2 0.0
15/02:30am 18.1 15.3 -2.9 24 8.8 SSW 2 4 1 2 1014.8 - 0.0
15/02:00am 20.7 17.9 -0.7 24 9.6 N 4 6 2 3 1014.7 - 0.0
15/01:30am 21.5 17.8 -4.5 17 10.9 NE 6 7 3 4 1014.8 - 0.0
15/01:00am 21.2 17.8 -5.3 16 10.9 NNE 4 6 2 3 1015.1 - 0.0
15/12:30am 21.8 18.4 -5.3 16 11.2 N 4 6 2 3 1015.3 - 0.0
15/12:00am 22.6 19.5 -2.8 18 11.1 E 4 6 2 3 1015.4 1012.8 0.0
 
Date/Time
WST
Temp
°C
App
Temp
°C
Dew
Point
Rel
Hum
%
Delta-T
°C
Wind Press
QNH
hPa
Press
MSL
hPa
Rain
since 9 am
mm
Dir
 
Spd
km/h
Gust
km/h
Spd
kts
Gust
kts
14/11:30pm 22.8 19.3 -6.2 14 11.9 E 4 9 2 5 1015.7 - 0.0

Other Formats:

Comma delimited format used in spreadsheet applications
http://www.bom.gov.au/fwo/IDW60801/IDW60801.94212.axf

JavaScript Object Notation format (JSON) in row-major order
http://www.bom.gov.au/fwo/IDW60801/IDW60801.94212.json